sensor_id;sensor_type;location;lat;lon;timestamp;pressure;altitude;pressure_sealevel;temperature;humidity
45731;BME280;31440;48.584;13.460;2023-05-11T00:03:03;96537.38;;;11.32;100.00
45731;BME280;31440;48.584;13.460;2023-05-11T00:06:09;96541.75;;;11.51;100.00
45731;BME280;31440;48.584;13.460;2023-05-11T00:09:14;96537.81;;;11.62;100.00
45731;BME280;31440;48.584;13.460;2023-05-11T00:12:18;96541.56;;;11.55;100.00
45731;BME280;31440;48.584;13.460;2023-05-11T00:15:23;96521.72;;;11.72;100.00
45731;BME280;31440;48.584;13.460;2023-05-11T00:18:28;96526.03;;;11.92;100.00
45731;BME280;31440;48.584;13.460;2023-05-11T00:21:32;96530.75;;;11.45;100.00
45731;BME280;31440;48.584;13.460;2023-05-11T00:24:37;96530.44;;;11.32;100.00
45731;BME280;31440;48.584;13.460;2023-05-11T00:27:42;96529.97;;;11.43;100.00
45731;BME280;31440;48.584;13.460;2023-05-11T00:30:54;96525.88;;;11.37;100.00
45731;BME280;31440;48.584;13.460;2023-05-11T00:33:59;96530.84;;;11.62;100.00
45731;BME280;31440;48.584;13.460;2023-05-11T00:37:04;96523.56;;;11.70;100.00
45731;BME280;31440;48.584;13.460;2023-05-11T00:40:08;96523.56;;;11.31;100.00
45731;BME280;31440;48.584;13.460;2023-05-11T00:43:13;96520.88;;;11.53;100.00
45731;BME280;31440;48.584;13.460;2023-05-11T00:46:18;96521.31;;;11.22;100.00
45731;BME280;31440;48.584;13.460;2023-05-11T00:49:22;96525.94;;;10.95;100.00
45731;BME280;31440;48.584;13.460;2023-05-11T00:52:27;96523.97;;;10.80;100.00
45731;BME280;31440;48.584;13.460;2023-05-11T00:55:32;96518.00;;;11.18;100.00
45731;BME280;31440;48.584;13.460;2023-05-11T00:58:38;96521.94;;;10.65;100.00
45731;BME280;31440;48.584;13.460;2023-05-11T01:01:42;96525.66;;;10.59;100.00
45731;BME280;31440;48.584;13.460;2023-05-11T01:04:47;96523.00;;;11.03;100.00
45731;BME280;31440;48.584;13.460;2023-05-11T01:08:08;96523.25;;;10.76;100.00
45731;BME280;31440;48.584;13.460;2023-05-11T01:11:34;96520.88;;;10.92;100.00
45731;BME280;31440;48.584;13.460;2023-05-11T01:14:44;96523.16;;;10.56;100.00
45731;BME280;31440;48.584;13.460;2023-05-11T01:21:14;96523.34;;;10.52;100.00
45731;BME280;31440;48.584;13.460;2023-05-11T01:24:42;96518.94;;;10.54;100.00
45731;BME280;31440;48.584;13.460;2023-05-11T01:31:27;96516.63;;;10.68;100.00
45731;BME280;31440;48.584;13.460;2023-05-11T01:34:34;96524.44;;;11.10;100.00
45731;BME280;31440;48.584;13.460;2023-05-11T01:37:45;96517.59;;;10.65;100.00
45731;BME280;31440;48.584;13.460;2023-05-11T01:40:51;96519.56;;;11.23;100.00
45731;BME280;31440;48.584;13.460;2023-05-11T01:44:02;96523.50;;;11.33;100.00
45731;BME280;31440;48.584;13.460;2023-05-11T01:47:09;96525.53;;;11.04;100.00
45731;BME280;31440;48.584;13.460;2023-05-11T01:50:15;96524.34;;;11.13;100.00
45731;BME280;31440;48.584;13.460;2023-05-11T01:53:22;96527.06;;;11.10;100.00
45731;BME280;31440;48.584;13.460;2023-05-11T01:56:27;96515.69;;;11.12;100.00
45731;BME280;31440;48.584;13.460;2023-05-11T01:59:34;96530.34;;;10.93;100.00
45731;BME280;31440;48.584;13.460;2023-05-11T02:02:39;96531.47;;;11.08;100.00
45731;BME280;31440;48.584;13.460;2023-05-11T02:05:45;96519.25;;;10.90;100.00
45731;BME280;31440;48.584;13.460;2023-05-11T02:08:52;96535.91;;;10.84;100.00
45731;BME280;31440;48.584;13.460;2023-05-11T02:11:57;96541.09;;;10.62;100.00
45731;BME280;31440;48.584;13.460;2023-05-11T02:15:03;96533.78;;;10.72;100.00
45731;BME280;31440;48.584;13.460;2023-05-11T02:18:10;96541.91;;;10.64;100.00
45731;BME280;31440;48.584;13.460;2023-05-11T02:21:16;96540.88;;;11.10;100.00
45731;BME280;31440;48.584;13.460;2023-05-11T02:24:22;96532.88;;;10.73;100.00
45731;BME280;31440;48.584;13.460;2023-05-11T02:27:27;96525.22;;;10.48;100.00
45731;BME280;31440;48.584;13.460;2023-05-11T02:30:44;96536.69;;;10.64;100.00
45731;BME280;31440;48.584;13.460;2023-05-11T02:33:50;96540.91;;;10.67;100.00
45731;BME280;31440;48.584;13.460;2023-05-11T02:36:58;96537.41;;;10.68;100.00
45731;BME280;31440;48.584;13.460;2023-05-11T02:40:08;96533.31;;;10.40;100.00
45731;BME280;31440;48.584;13.460;2023-05-11T02:43:21;96536.59;;;10.45;100.00
45731;BME280;31440;48.584;13.460;2023-05-11T02:46:34;96535.38;;;10.76;100.00
45731;BME280;31440;48.584;13.460;2023-05-11T02:49:41;96530.91;;;10.79;100.00
45731;BME280;31440;48.584;13.460;2023-05-11T02:52:48;96524.63;;;11.05;100.00
45731;BME280;31440;48.584;13.460;2023-05-11T02:55:54;96537.16;;;11.36;100.00
45731;BME280;31440;48.584;13.460;2023-05-11T02:59:01;96536.97;;;11.21;100.00
45731;BME280;31440;48.584;13.460;2023-05-11T03:02:06;96536.06;;;11.22;100.00
45731;BME280;31440;48.584;13.460;2023-05-11T03:05:11;96542.06;;;11.24;100.00
45731;BME280;31440;48.584;13.460;2023-05-11T03:08:16;96538.59;;;11.03;100.00
45731;BME280;31440;48.584;13.460;2023-05-11T03:11:21;96536.22;;;10.98;100.00
45731;BME280;31440;48.584;13.460;2023-05-11T03:14:25;96534.81;;;10.68;100.00
45731;BME280;31440;48.584;13.460;2023-05-11T03:17:33;96536.97;;;11.00;100.00
45731;BME280;31440;48.584;13.460;2023-05-11T03:20:40;96533.50;;;10.58;100.00
45731;BME280;31440;48.584;13.460;2023-05-11T03:23:46;96538.84;;;10.75;100.00
45731;BME280;31440;48.584;13.460;2023-05-11T03:26:55;96535.41;;;10.53;100.00
45731;BME280;31440;48.584;13.460;2023-05-11T03:30:03;96532.63;;;10.80;100.00
45731;BME280;31440;48.584;13.460;2023-05-11T03:33:14;96535.00;;;10.85;100.00
45731;BME280;31440;48.584;13.460;2023-05-11T03:36:20;96538.00;;;11.37;100.00
45731;BME280;31440;48.584;13.460;2023-05-11T03:39:29;96531.31;;;10.69;100.00
45731;BME280;31440;48.584;13.460;2023-05-11T03:42:36;96540.59;;;10.76;100.00
45731;BME280;31440;48.584;13.460;2023-05-11T03:45:42;96536.69;;;10.64;100.00
45731;BME280;31440;48.584;13.460;2023-05-11T03:48:49;96539.88;;;10.49;100.00
45731;BME280;31440;48.584;13.460;2023-05-11T03:51:58;96542.59;;;10.24;100.00
45731;BME280;31440;48.584;13.460;2023-05-11T03:55:03;96530.41;;;10.70;100.00
45731;BME280;31440;48.584;13.460;2023-05-11T03:58:08;96533.25;;;10.42;100.00
45731;BME280;31440;48.584;13.460;2023-05-11T04:01:13;96539.53;;;10.58;100.00
45731;BME280;31440;48.584;13.460;2023-05-11T04:04:19;96537.66;;;10.62;100.00
45731;BME280;31440;48.584;13.460;2023-05-11T04:07:23;96541.41;;;10.55;100.00
45731;BME280;31440;48.584;13.460;2023-05-11T04:10:28;96534.34;;;10.36;100.00
45731;BME280;31440;48.584;13.460;2023-05-11T04:13:33;96525.41;;;10.22;100.00
45731;BME280;31440;48.584;13.460;2023-05-11T04:16:38;96537.09;;;10.54;100.00
45731;BME280;31440;48.584;13.460;2023-05-11T04:19:42;96536.50;;;10.69;100.00
45731;BME280;31440;48.584;13.460;2023-05-11T04:22:47;96537.22;;;10.51;100.00
45731;BME280;31440;48.584;13.460;2023-05-11T04:25:55;96540.97;;;10.22;100.00
45731;BME280;31440;48.584;13.460;2023-05-11T04:29:00;96536.94;;;10.36;100.00
45731;BME280;31440;48.584;13.460;2023-05-11T04:32:04;96546.75;;;10.50;100.00
45731;BME280;31440;48.584;13.460;2023-05-11T04:35:09;96546.88;;;10.25;100.00
45731;BME280;31440;48.584;13.460;2023-05-11T04:38:15;96539.19;;;10.45;100.00
45731;BME280;31440;48.584;13.460;2023-05-11T04:41:20;96544.94;;;10.52;100.00
45731;BME280;31440;48.584;13.460;2023-05-11T04:44:26;96539.94;;;10.47;100.00
45731;BME280;31440;48.584;13.460;2023-05-11T04:47:31;96540.31;;;10.60;100.00
45731;BME280;31440;48.584;13.460;2023-05-11T04:50:36;96536.50;;;10.25;100.00
45731;BME280;31440;48.584;13.460;2023-05-11T04:53:41;96545.34;;;10.43;100.00
45731;BME280;31440;48.584;13.460;2023-05-11T04:56:46;96555.75;;;10.41;100.00
45731;BME280;31440;48.584;13.460;2023-05-11T04:59:51;96552.22;;;10.44;100.00
45731;BME280;31440;48.584;13.460;2023-05-11T05:02:56;96553.81;;;10.68;100.00
45731;BME280;31440;48.584;13.460;2023-05-11T05:06:01;96551.22;;;10.46;100.00
45731;BME280;31440;48.584;13.460;2023-05-11T05:09:05;96553.19;;;10.63;100.00
45731;BME280;31440;48.584;13.460;2023-05-11T05:12:11;96546.28;;;10.62;100.00
45731;BME280;31440;48.584;13.460;2023-05-11T05:15:15;96552.13;;;10.67;100.00
45731;BME280;31440;48.584;13.460;2023-05-11T05:18:20;96556.78;;;11.03;100.00
45731;BME280;31440;48.584;13.460;2023-05-11T05:21:25;96557.22;;;10.92;100.00
45731;BME280;31440;48.584;13.460;2023-05-11T05:24:32;96559.75;;;10.72;100.00
45731;BME280;31440;48.584;13.460;2023-05-11T05:27:36;96560.22;;;11.03;100.00
45731;BME280;31440;48.584;13.460;2023-05-11T05:30:44;96560.66;;;10.93;100.00
45731;BME280;31440;48.584;13.460;2023-05-11T05:33:49;96559.47;;;11.42;100.00
45731;BME280;31440;48.584;13.460;2023-05-11T05:36:54;96556.78;;;11.23;100.00
45731;BME280;31440;48.584;13.460;2023-05-11T05:39:59;96565.97;;;11.32;100.00
45731;BME280;31440;48.584;13.460;2023-05-11T05:43:05;96551.28;;;11.31;100.00
45731;BME280;31440;48.584;13.460;2023-05-11T05:46:09;96561.59;;;11.12;100.00
45731;BME280;31440;48.584;13.460;2023-05-11T05:49:14;96567.94;;;11.05;100.00
45731;BME280;31440;48.584;13.460;2023-05-11T05:52:19;96567.38;;;11.18;100.00
45731;BME280;31440;48.584;13.460;2023-05-11T05:55:25;96567.94;;;11.05;100.00
45731;BME280;31440;48.584;13.460;2023-05-11T05:58:30;96577.72;;;10.78;100.00
45731;BME280;31440;48.584;13.460;2023-05-11T06:01:35;96579.72;;;11.13;100.00
45731;BME280;31440;48.584;13.460;2023-05-11T06:04:40;96580.69;;;11.11;100.00
45731;BME280;31440;48.584;13.460;2023-05-11T06:07:46;96579.66;;;11.15;100.00
45731;BME280;31440;48.584;13.460;2023-05-11T06:11:10;96579.47;;;10.99;100.00
45731;BME280;31440;48.584;13.460;2023-05-11T06:14:15;96577.81;;;10.97;100.00
45731;BME280;31440;48.584;13.460;2023-05-11T06:17:21;96592.34;;;11.01;100.00
45731;BME280;31440;48.584;13.460;2023-05-11T06:20:26;96595.94;;;10.98;100.00
45731;BME280;31440;48.584;13.460;2023-05-11T06:23:31;96596.19;;;11.34;100.00
45731;BME280;31440;48.584;13.460;2023-05-11T06:26:35;96598.88;;;11.11;100.00
45731;BME280;31440;48.584;13.460;2023-05-11T06:29:40;96588.69;;;11.27;100.00
45731;BME280;31440;48.584;13.460;2023-05-11T06:32:45;96596.88;;;11.18;100.00
45731;BME280;31440;48.584;13.460;2023-05-11T06:35:52;96600.53;;;11.34;100.00
45731;BME280;31440;48.584;13.460;2023-05-11T06:38:58;96593.19;;;11.01;100.00
45731;BME280;31440;48.584;13.460;2023-05-11T06:42:03;96607.44;;;11.35;100.00
45731;BME280;31440;48.584;13.460;2023-05-11T06:45:10;96593.19;;;11.43;100.00
45731;BME280;31440;48.584;13.460;2023-05-11T06:48:18;96600.59;;;11.32;100.00
45731;BME280;31440;48.584;13.460;2023-05-11T06:51:23;96588.31;;;11.56;100.00
45731;BME280;31440;48.584;13.460;2023-05-11T06:54:28;96598.84;;;11.33;100.00
45731;BME280;31440;48.584;13.460;2023-05-11T06:57:33;96590.59;;;11.43;100.00
45731;BME280;31440;48.584;13.460;2023-05-11T07:00:38;96589.63;;;11.46;100.00
45731;BME280;31440;48.584;13.460;2023-05-11T07:03:42;96594.41;;;11.75;100.00
45731;BME280;31440;48.584;13.460;2023-05-11T07:06:47;96592.16;;;11.68;100.00
45731;BME280;31440;48.584;13.460;2023-05-11T07:09:52;96588.31;;;12.15;100.00
45731;BME280;31440;48.584;13.460;2023-05-11T07:12:56;96589.81;;;12.21;100.00
45731;BME280;31440;48.584;13.460;2023-05-11T07:16:01;96593.84;;;11.89;100.00
45731;BME280;31440;48.584;13.460;2023-05-11T07:19:06;96594.69;;;12.08;100.00
45731;BME280;31440;48.584;13.460;2023-05-11T07:22:13;96590.28;;;11.90;100.00
45731;BME280;31440;48.584;13.460;2023-05-11T07:25:18;96590.78;;;11.79;100.00
45731;BME280;31440;48.584;13.460;2023-05-11T07:28:23;96583.16;;;12.14;100.00
45731;BME280;31440;48.584;13.460;2023-05-11T07:31:28;96595.44;;;11.92;100.00
45731;BME280;31440;48.584;13.460;2023-05-11T07:34:33;96594.91;;;12.04;100.00
45731;BME280;31440;48.584;13.460;2023-05-11T07:37:38;96602.91;;;11.99;100.00
45731;BME280;31440;48.584;13.460;2023-05-11T07:40:42;96590.94;;;12.34;100.00
45731;BME280;31440;48.584;13.460;2023-05-11T07:43:47;96596.91;;;12.36;100.00
45731;BME280;31440;48.584;13.460;2023-05-11T07:46:51;96599.47;;;11.78;100.00
45731;BME280;31440;48.584;13.460;2023-05-11T07:49:56;96591.47;;;11.83;100.00
45731;BME280;31440;48.584;13.460;2023-05-11T07:53:01;96589.94;;;11.79;100.00
45731;BME280;31440;48.584;13.460;2023-05-11T07:56:06;96591.66;;;11.99;100.00
45731;BME280;31440;48.584;13.460;2023-05-11T07:59:10;96607.19;;;12.00;100.00
45731;BME280;31440;48.584;13.460;2023-05-11T08:02:15;96594.44;;;11.94;100.00
45731;BME280;31440;48.584;13.460;2023-05-11T08:05:20;96576.88;;;11.99;100.00
45731;BME280;31440;48.584;13.460;2023-05-11T08:08:25;96595.44;;;12.10;100.00
45731;BME280;31440;48.584;13.460;2023-05-11T08:11:29;96602.72;;;11.83;100.00
45731;BME280;31440;48.584;13.460;2023-05-11T08:14:34;96595.97;;;11.79;100.00
45731;BME280;31440;48.584;13.460;2023-05-11T08:17:38;96595.66;;;11.87;100.00
45731;BME280;31440;48.584;13.460;2023-05-11T08:20:43;96596.25;;;11.53;100.00
45731;BME280;31440;48.584;13.460;2023-05-11T08:23:48;96597.72;;;11.59;100.00
45731;BME280;31440;48.584;13.460;2023-05-11T08:26:52;96590.22;;;10.67;100.00
45731;BME280;31440;48.584;13.460;2023-05-11T08:29:57;96582.47;;;11.31;100.00
45731;BME280;31440;48.584;13.460;2023-05-11T08:33:02;96586.56;;;11.57;100.00
45731;BME280;31440;48.584;13.460;2023-05-11T08:36:26;96582.41;;;12.31;100.00
45731;BME280;31440;48.584;13.460;2023-05-11T08:39:33;96588.34;;;11.75;100.00
45731;BME280;31440;48.584;13.460;2023-05-11T08:42:54;96587.81;;;12.26;100.00
45731;BME280;31440;48.584;13.460;2023-05-11T08:46:03;96596.06;;;12.17;100.00
45731;BME280;31440;48.584;13.460;2023-05-11T08:49:10;96586.66;;;12.52;100.00
45731;BME280;31440;48.584;13.460;2023-05-11T08:52:17;96587.22;;;12.21;100.00
45731;BME280;31440;48.584;13.460;2023-05-11T08:55:23;96598.75;;;12.34;100.00
45731;BME280;31440;48.584;13.460;2023-05-11T08:58:29;96595.38;;;12.12;100.00
45731;BME280;31440;48.584;13.460;2023-05-11T09:01:35;96589.72;;;11.83;100.00
45731;BME280;31440;48.584;13.460;2023-05-11T09:04:41;96594.00;;;12.05;100.00
45731;BME280;31440;48.584;13.460;2023-05-11T09:07:46;96596.72;;;12.22;100.00
45731;BME280;31440;48.584;13.460;2023-05-11T09:10:55;96590.88;;;12.17;100.00
45731;BME280;31440;48.584;13.460;2023-05-11T09:14:00;96591.91;;;12.32;100.00
45731;BME280;31440;48.584;13.460;2023-05-11T09:17:05;96584.50;;;12.04;100.00
45731;BME280;31440;48.584;13.460;2023-05-11T09:20:10;96585.13;;;12.84;100.00
45731;BME280;31440;48.584;13.460;2023-05-11T09:23:15;96575.72;;;12.44;100.00
45731;BME280;31440;48.584;13.460;2023-05-11T09:26:21;96592.41;;;12.21;100.00
45731;BME280;31440;48.584;13.460;2023-05-11T09:29:29;96596.84;;;12.38;100.00
45731;BME280;31440;48.584;13.460;2023-05-11T09:33:06;96590.59;;;12.23;100.00
45731;BME280;31440;48.584;13.460;2023-05-11T09:36:22;96586.91;;;12.65;100.00
45731;BME280;31440;48.584;13.460;2023-05-11T09:39:31;96584.28;;;12.83;100.00
45731;BME280;31440;48.584;13.460;2023-05-11T09:42:58;96592.56;;;13.28;100.00
45731;BME280;31440;48.584;13.460;2023-05-11T09:46:02;96590.06;;;13.07;100.00
45731;BME280;31440;48.584;13.460;2023-05-11T09:49:11;96584.53;;;12.79;100.00
45731;BME280;31440;48.584;13.460;2023-05-11T09:52:17;96594.38;;;12.72;100.00
45731;BME280;31440;48.584;13.460;2023-05-11T09:55:22;96582.91;;;12.76;100.00
45731;BME280;31440;48.584;13.460;2023-05-11T09:58:43;96589.16;;;12.16;100.00
45731;BME280;31440;48.584;13.460;2023-05-11T10:01:49;96591.91;;;13.05;100.00
45731;BME280;31440;48.584;13.460;2023-05-11T10:04:55;96590.59;;;12.97;100.00
45731;BME280;31440;48.584;13.460;2023-05-11T10:08:04;96586.59;;;13.43;100.00
45731;BME280;31440;48.584;13.460;2023-05-11T10:11:09;96589.06;;;13.46;100.00
45731;BME280;31440;48.584;13.460;2023-05-11T10:14:14;96582.28;;;13.59;100.00
45731;BME280;31440;48.584;13.460;2023-05-11T10:17:20;96576.09;;;13.62;100.00
45731;BME280;31440;48.584;13.460;2023-05-11T10:20:25;96578.75;;;12.53;100.00
45731;BME280;31440;48.584;13.460;2023-05-11T10:23:30;96584.88;;;12.34;100.00
45731;BME280;31440;48.584;13.460;2023-05-11T10:26:37;96578.56;;;13.47;100.00
45731;BME280;31440;48.584;13.460;2023-05-11T10:29:42;96574.16;;;13.31;100.00
45731;BME280;31440;48.584;13.460;2023-05-11T10:32:47;96577.91;;;13.77;100.00
45731;BME280;31440;48.584;13.460;2023-05-11T10:35:53;96570.16;;;13.75;100.00
45731;BME280;31440;48.584;13.460;2023-05-11T10:38:58;96574.00;;;14.34;100.00
45731;BME280;31440;48.584;13.460;2023-05-11T10:45:39;96568.00;;;14.48;100.00
45731;BME280;31440;48.584;13.460;2023-05-11T10:52:20;96572.91;;;14.22;100.00
45731;BME280;31440;48.584;13.460;2023-05-11T11:02:14;96556.38;;;15.01;100.00
45731;BME280;31440;48.584;13.460;2023-05-11T11:05:33;96552.16;;;14.98;100.00
45731;BME280;31440;48.584;13.460;2023-05-11T11:09:01;96544.34;;;14.35;100.00
45731;BME280;31440;48.584;13.460;2023-05-11T11:12:08;96547.56;;;14.72;100.00
45731;BME280;31440;48.584;13.460;2023-05-11T11:15:13;96555.13;;;14.29;100.00
45731;BME280;31440;48.584;13.460;2023-05-11T11:18:22;96547.03;;;14.81;100.00
45731;BME280;31440;48.584;13.460;2023-05-11T11:21:38;96552.16;;;14.04;100.00
45731;BME280;31440;48.584;13.460;2023-05-11T11:24:45;96553.16;;;13.68;100.00
45731;BME280;31440;48.584;13.460;2023-05-11T11:31:24;96545.19;;;13.87;100.00
45731;BME280;31440;48.584;13.460;2023-05-11T11:38:01;96546.53;;;13.78;100.00
45731;BME280;31440;48.584;13.460;2023-05-11T11:41:07;96545.91;;;13.39;100.00
45731;BME280;31440;48.584;13.460;2023-05-11T11:44:21;96561.63;;;13.72;100.00
45731;BME280;31440;48.584;13.460;2023-05-11T11:47:26;96547.97;;;13.84;100.00
45731;BME280;31440;48.584;13.460;2023-05-11T11:50:31;96549.75;;;13.83;100.00
45731;BME280;31440;48.584;13.460;2023-05-11T11:56:42;96558.38;;;13.68;100.00
45731;BME280;31440;48.584;13.460;2023-05-11T11:59:47;96543.53;;;13.17;100.00
45731;BME280;31440;48.584;13.460;2023-05-11T12:02:52;96549.53;;;13.19;100.00
45731;BME280;31440;48.584;13.460;2023-05-11T12:05:59;96554.69;;;13.55;100.00
45731;BME280;31440;48.584;13.460;2023-05-11T12:09:06;96548.28;;;13.78;100.00
45731;BME280;31440;48.584;13.460;2023-05-11T12:12:11;96547.16;;;13.14;100.00
45731;BME280;31440;48.584;13.460;2023-05-11T12:15:27;96554.63;;;12.86;100.00
45731;BME280;31440;48.584;13.460;2023-05-11T12:18:32;96551.13;;;13.39;100.00
45731;BME280;31440;48.584;13.460;2023-05-11T12:21:36;96545.00;;;13.74;100.00
45731;BME280;31440;48.584;13.460;2023-05-11T12:24:41;96550.13;;;13.76;100.00
45731;BME280;31440;48.584;13.460;2023-05-11T12:27:51;96555.06;;;13.98;100.00
45731;BME280;31440;48.584;13.460;2023-05-11T12:30:58;96552.47;;;13.65;100.00
45731;BME280;31440;48.584;13.460;2023-05-11T12:34:04;96546.63;;;13.92;100.00
45731;BME280;31440;48.584;13.460;2023-05-11T12:37:09;96546.59;;;13.77;100.00
45731;BME280;31440;48.584;13.460;2023-05-11T12:40:13;96550.44;;;13.01;100.00
45731;BME280;31440;48.584;13.460;2023-05-11T12:43:20;96533.81;;;13.88;100.00
45731;BME280;31440;48.584;13.460;2023-05-11T12:46:25;96536.09;;;13.78;100.00
45731;BME280;31440;48.584;13.460;2023-05-11T12:49:29;96532.03;;;13.73;100.00
45731;BME280;31440;48.584;13.460;2023-05-11T12:52:34;96524.31;;;13.87;100.00
45731;BME280;31440;48.584;13.460;2023-05-11T12:55:39;96534.59;;;14.70;100.00
45731;BME280;31440;48.584;13.460;2023-05-11T12:58:44;96530.56;;;14.94;100.00
45731;BME280;31440;48.584;13.460;2023-05-11T13:01:49;96514.94;;;14.16;100.00
45731;BME280;31440;48.584;13.460;2023-05-11T13:04:54;96530.34;;;14.52;100.00
45731;BME280;31440;48.584;13.460;2023-05-11T13:08:02;96513.34;;;14.29;100.00
45731;BME280;31440;48.584;13.460;2023-05-11T13:11:24;96522.53;;;15.13;100.00
45731;BME280;31440;48.584;13.460;2023-05-11T13:14:30;96516.78;;;14.45;100.00
45731;BME280;31440;48.584;13.460;2023-05-11T13:17:35;96517.72;;;13.30;100.00
45731;BME280;31440;48.584;13.460;2023-05-11T13:20:40;96504.34;;;14.35;100.00
45731;BME280;31440;48.584;13.460;2023-05-11T13:23:50;96512.91;;;14.52;100.00
45731;BME280;31440;48.584;13.460;2023-05-11T13:26:56;96517.56;;;14.63;100.00
45731;BME280;31440;48.584;13.460;2023-05-11T13:30:05;96515.31;;;15.03;100.00
45731;BME280;31440;48.584;13.460;2023-05-11T13:33:10;96510.16;;;14.40;100.00
45731;BME280;31440;48.584;13.460;2023-05-11T13:36:15;96513.63;;;14.56;100.00
45731;BME280;31440;48.584;13.460;2023-05-11T13:39:20;96519.22;;;14.48;100.00
45731;BME280;31440;48.584;13.460;2023-05-11T13:42:25;96511.22;;;14.51;100.00
45731;BME280;31440;48.584;13.460;2023-05-11T13:45:29;96514.69;;;14.68;100.00
45731;BME280;31440;48.584;13.460;2023-05-11T13:48:34;96515.09;;;14.13;100.00
45731;BME280;31440;48.584;13.460;2023-05-11T13:51:38;96506.69;;;14.55;100.00
45731;BME280;31440;48.584;13.460;2023-05-11T13:54:43;96505.75;;;14.87;100.00
45731;BME280;31440;48.584;13.460;2023-05-11T13:57:48;96512.47;;;14.91;100.00
45731;BME280;31440;48.584;13.460;2023-05-11T14:00:52;96511.50;;;14.31;100.00
45731;BME280;31440;48.584;13.460;2023-05-11T14:04:11;96508.78;;;14.80;100.00
45731;BME280;31440;48.584;13.460;2023-05-11T14:07:16;96506.50;;;14.42;100.00
45731;BME280;31440;48.584;13.460;2023-05-11T14:10:20;96508.31;;;14.57;100.00
45731;BME280;31440;48.584;13.460;2023-05-11T14:13:25;96499.19;;;14.33;100.00
45731;BME280;31440;48.584;13.460;2023-05-11T14:16:30;96499.72;;;14.55;100.00
45731;BME280;31440;48.584;13.460;2023-05-11T14:19:34;96500.53;;;14.72;100.00
45731;BME280;31440;48.584;13.460;2023-05-11T14:22:39;96499.78;;;14.70;100.00
45731;BME280;31440;48.584;13.460;2023-05-11T14:25:44;96506.78;;;14.53;100.00
45731;BME280;31440;48.584;13.460;2023-05-11T14:28:50;96495.97;;;14.91;100.00
45731;BME280;31440;48.584;13.460;2023-05-11T14:31:55;96504.75;;;14.74;100.00
45731;BME280;31440;48.584;13.460;2023-05-11T14:34:59;96507.00;;;14.80;100.00
45731;BME280;31440;48.584;13.460;2023-05-11T14:38:05;96500.91;;;14.95;100.00
45731;BME280;31440;48.584;13.460;2023-05-11T14:41:10;96499.31;;;15.23;100.00
45731;BME280;31440;48.584;13.460;2023-05-11T14:44:14;96497.69;;;15.06;100.00
45731;BME280;31440;48.584;13.460;2023-05-11T14:47:19;96498.94;;;14.99;100.00
45731;BME280;31440;48.584;13.460;2023-05-11T14:50:24;96500.03;;;14.65;100.00
45731;BME280;31440;48.584;13.460;2023-05-11T14:53:28;96506.47;;;15.19;100.00
45731;BME280;31440;48.584;13.460;2023-05-11T14:56:34;96504.44;;;15.24;100.00
45731;BME280;31440;48.584;13.460;2023-05-11T14:59:40;96502.84;;;15.22;100.00
45731;BME280;31440;48.584;13.460;2023-05-11T15:03:01;96507.59;;;14.85;100.00
45731;BME280;31440;48.584;13.460;2023-05-11T15:06:06;96502.72;;;15.09;100.00
45731;BME280;31440;48.584;13.460;2023-05-11T15:09:11;96504.03;;;14.56;100.00
45731;BME280;31440;48.584;13.460;2023-05-11T15:12:16;96511.94;;;14.71;100.00
45731;BME280;31440;48.584;13.460;2023-05-11T15:15:20;96508.56;;;14.37;100.00
45731;BME280;31440;48.584;13.460;2023-05-11T15:18:25;96515.53;;;14.52;100.00
45731;BME280;31440;48.584;13.460;2023-05-11T15:21:30;96526.38;;;14.29;100.00
45731;BME280;31440;48.584;13.460;2023-05-11T15:24:35;96516.13;;;13.77;100.00
45731;BME280;31440;48.584;13.460;2023-05-11T15:27:40;96522.69;;;14.17;100.00
45731;BME280;31440;48.584;13.460;2023-05-11T15:30:45;96528.16;;;14.13;100.00
45731;BME280;31440;48.584;13.460;2023-05-11T15:33:50;96533.53;;;14.25;100.00
45731;BME280;31440;48.584;13.460;2023-05-11T15:36:54;96517.47;;;14.02;100.00
45731;BME280;31440;48.584;13.460;2023-05-11T15:40:02;96527.63;;;14.06;100.00
45731;BME280;31440;48.584;13.460;2023-05-11T15:43:07;96522.00;;;14.45;100.00
45731;BME280;31440;48.584;13.460;2023-05-11T15:46:11;96525.72;;;14.25;100.00
45731;BME280;31440;48.584;13.460;2023-05-11T15:49:16;96513.53;;;14.73;100.00
45731;BME280;31440;48.584;13.460;2023-05-11T15:52:20;96527.41;;;14.42;100.00
45731;BME280;31440;48.584;13.460;2023-05-11T15:55:25;96527.75;;;14.52;100.00
45731;BME280;31440;48.584;13.460;2023-05-11T15:58:29;96527.06;;;14.33;100.00
45731;BME280;31440;48.584;13.460;2023-05-11T16:01:34;96516.38;;;14.37;100.00
45731;BME280;31440;48.584;13.460;2023-05-11T16:04:39;96518.22;;;14.35;100.00
45731;BME280;31440;48.584;13.460;2023-05-11T16:07:43;96527.63;;;14.06;100.00
45731;BME280;31440;48.584;13.460;2023-05-11T16:10:48;96528.75;;;14.34;100.00
45731;BME280;31440;48.584;13.460;2023-05-11T16:13:52;96527.22;;;14.14;100.00
45731;BME280;31440;48.584;13.460;2023-05-11T16:16:57;96515.56;;;13.88;100.00
45731;BME280;31440;48.584;13.460;2023-05-11T16:20:04;96532.19;;;14.03;100.00
45731;BME280;31440;48.584;13.460;2023-05-11T16:23:09;96522.41;;;14.06;100.00
45731;BME280;31440;48.584;13.460;2023-05-11T16:26:14;96520.31;;;13.64;100.00
45731;BME280;31440;48.584;13.460;2023-05-11T16:29:18;96527.03;;;13.85;100.00
45731;BME280;31440;48.584;13.460;2023-05-11T16:32:23;96525.50;;;13.81;100.00
45731;BME280;31440;48.584;13.460;2023-05-11T16:35:28;96525.53;;;13.30;100.00